sensor_id;sensor_type;location;lat;lon;timestamp;P1;durP1;ratioP1;P2;durP2;ratioP2
253;SDS011;590;48.772;8.846;2023-02-05T00:02:20;7.90;;;7.50;;
253;SDS011;590;48.772;8.846;2023-02-05T00:04:48;7.73;;;7.30;;
253;SDS011;590;48.772;8.846;2023-02-05T00:07:16;7.70;;;7.30;;
253;SDS011;590;48.772;8.846;2023-02-05T00:09:44;8.00;;;7.60;;
253;SDS011;590;48.772;8.846;2023-02-05T00:12:12;7.27;;;6.87;;
253;SDS011;590;48.772;8.846;2023-02-05T00:14:40;8.30;;;7.90;;
253;SDS011;590;48.772;8.846;2023-02-05T00:17:08;7.60;;;7.20;;
253;SDS011;590;48.772;8.846;2023-02-05T00:19:37;8.10;;;7.70;;
253;SDS011;590;48.772;8.846;2023-02-05T00:22:05;8.03;;;7.63;;
253;SDS011;590;48.772;8.846;2023-02-05T00:24:33;8.07;;;7.67;;
253;SDS011;590;48.772;8.846;2023-02-05T00:27:01;7.97;;;7.37;;
253;SDS011;590;48.772;8.846;2023-02-05T00:29:29;8.33;;;7.90;;
253;SDS011;590;48.772;8.846;2023-02-05T00:31:57;7.50;;;7.10;;
253;SDS011;590;48.772;8.846;2023-02-05T00:34:25;8.60;;;8.10;;
253;SDS011;590;48.772;8.846;2023-02-05T00:36:54;7.20;;;6.80;;
253;SDS011;590;48.772;8.846;2023-02-05T00:39:22;8.23;;;7.83;;
253;SDS011;590;48.772;8.846;2023-02-05T00:41:50;7.23;;;6.83;;
253;SDS011;590;48.772;8.846;2023-02-05T00:44:18;7.30;;;6.90;;
253;SDS011;590;48.772;8.846;2023-02-05T00:46:46;7.37;;;6.97;;
253;SDS011;590;48.772;8.846;2023-02-05T00:49:14;7.70;;;7.30;;
253;SDS011;590;48.772;8.846;2023-02-05T00:51:42;8.80;;;8.30;;
253;SDS011;590;48.772;8.846;2023-02-05T00:54:11;7.90;;;7.50;;
253;SDS011;590;48.772;8.846;2023-02-05T00:56:39;8.77;;;8.27;;
253;SDS011;590;48.772;8.846;2023-02-05T00:59:07;7.40;;;7.00;;
253;SDS011;590;48.772;8.846;2023-02-05T01:01:35;7.87;;;7.47;;
253;SDS011;590;48.772;8.846;2023-02-05T01:04:03;7.10;;;6.70;;
253;SDS011;590;48.772;8.846;2023-02-05T01:06:31;7.40;;;7.00;;
253;SDS011;590;48.772;8.846;2023-02-05T01:08:59;7.30;;;6.90;;
253;SDS011;590;48.772;8.846;2023-02-05T01:11:28;7.63;;;7.23;;
253;SDS011;590;48.772;8.846;2023-02-05T01:13:56;8.67;;;8.17;;
253;SDS011;590;48.772;8.846;2023-02-05T01:16:24;6.77;;;6.37;;
253;SDS011;590;48.772;8.846;2023-02-05T01:18:52;7.43;;;7.03;;
253;SDS011;590;48.772;8.846;2023-02-05T01:21:22;7.83;;;7.43;;
253;SDS011;590;48.772;8.846;2023-02-05T01:23:50;6.87;;;6.47;;
253;SDS011;590;48.772;8.846;2023-02-05T01:26:19;7.77;;;7.37;;
253;SDS011;590;48.772;8.846;2023-02-05T01:28:49;7.40;;;7.00;;
253;SDS011;590;48.772;8.846;2023-02-05T01:31:17;7.23;;;6.83;;
253;SDS011;590;48.772;8.846;2023-02-05T01:33:46;7.93;;;7.53;;
253;SDS011;590;48.772;8.846;2023-02-05T01:36:13;8.37;;;7.93;;
253;SDS011;590;48.772;8.846;2023-02-05T01:38:41;7.70;;;7.30;;
253;SDS011;590;48.772;8.846;2023-02-05T01:41:10;6.90;;;6.50;;
253;SDS011;590;48.772;8.846;2023-02-05T01:43:39;7.77;;;7.37;;
253;SDS011;590;48.772;8.846;2023-02-05T01:46:15;7.00;;;6.60;;
253;SDS011;590;48.772;8.846;2023-02-05T01:48:47;7.30;;;6.90;;
253;SDS011;590;48.772;8.846;2023-02-05T01:51:19;6.87;;;6.47;;
253;SDS011;590;48.772;8.846;2023-02-05T01:53:48;7.03;;;6.63;;
253;SDS011;590;48.772;8.846;2023-02-05T01:56:19;7.10;;;6.70;;
253;SDS011;590;48.772;8.846;2023-02-05T01:58:50;6.77;;;6.37;;
253;SDS011;590;48.772;8.846;2023-02-05T02:01:23;7.30;;;6.90;;
253;SDS011;590;48.772;8.846;2023-02-05T02:03:53;7.23;;;6.83;;
253;SDS011;590;48.772;8.846;2023-02-05T02:06:24;7.97;;;7.57;;
253;SDS011;590;48.772;8.846;2023-02-05T02:08:52;6.40;;;6.00;;
253;SDS011;590;48.772;8.846;2023-02-05T02:11:20;6.90;;;6.50;;
253;SDS011;590;48.772;8.846;2023-02-05T02:13:49;7.03;;;6.63;;
253;SDS011;590;48.772;8.846;2023-02-05T02:16:20;7.10;;;6.70;;
253;SDS011;590;48.772;8.846;2023-02-05T02:18:51;7.03;;;6.63;;
253;SDS011;590;48.772;8.846;2023-02-05T02:24:46;7.97;;;7.57;;
253;SDS011;590;48.772;8.846;2023-02-05T02:27:33;6.93;;;6.53;;
253;SDS011;590;48.772;8.846;2023-02-05T02:30:08;7.27;;;6.70;;
253;SDS011;590;48.772;8.846;2023-02-05T02:32:39;7.83;;;6.80;;
253;SDS011;590;48.772;8.846;2023-02-05T02:35:14;6.77;;;6.37;;
253;SDS011;590;48.772;8.846;2023-02-05T02:37:48;7.57;;;7.17;;
253;SDS011;590;48.772;8.846;2023-02-05T02:40:34;7.00;;;6.60;;
253;SDS011;590;48.772;8.846;2023-02-05T02:43:09;7.37;;;6.97;;
253;SDS011;590;48.772;8.846;2023-02-05T02:45:41;6.80;;;6.40;;
253;SDS011;590;48.772;8.846;2023-02-05T02:48:13;7.00;;;6.60;;
253;SDS011;590;48.772;8.846;2023-02-05T02:50:44;7.37;;;6.97;;
253;SDS011;590;48.772;8.846;2023-02-05T02:53:16;6.27;;;5.93;;
253;SDS011;590;48.772;8.846;2023-02-05T02:55:47;6.97;;;6.57;;
253;SDS011;590;48.772;8.846;2023-02-05T02:58:19;5.87;;;5.57;;
253;SDS011;590;48.772;8.846;2023-02-05T03:00:49;7.30;;;6.90;;
253;SDS011;590;48.772;8.846;2023-02-05T03:03:19;6.43;;;6.07;;
253;SDS011;590;48.772;8.846;2023-02-05T03:05:50;6.10;;;5.80;;
253;SDS011;590;48.772;8.846;2023-02-05T03:08:21;5.90;;;5.60;;
253;SDS011;590;48.772;8.846;2023-02-05T03:10:54;5.90;;;5.60;;
253;SDS011;590;48.772;8.846;2023-02-05T03:13:28;6.70;;;6.30;;
253;SDS011;590;48.772;8.846;2023-02-05T03:15:57;6.23;;;5.90;;
253;SDS011;590;48.772;8.846;2023-02-05T03:18:25;7.43;;;7.00;;
253;SDS011;590;48.772;8.846;2023-02-05T03:20:54;6.63;;;6.23;;
253;SDS011;590;48.772;8.846;2023-02-05T03:23:24;6.87;;;6.47;;
253;SDS011;590;48.772;8.846;2023-02-05T03:25:53;7.20;;;6.80;;
253;SDS011;590;48.772;8.846;2023-02-05T03:28:21;6.87;;;6.47;;
253;SDS011;590;48.772;8.846;2023-02-05T03:30:55;6.40;;;6.00;;
253;SDS011;590;48.772;8.846;2023-02-05T03:33:36;6.43;;;6.03;;
253;SDS011;590;48.772;8.846;2023-02-05T03:36:10;6.67;;;6.27;;
253;SDS011;590;48.772;8.846;2023-02-05T03:38:48;6.47;;;6.10;;
253;SDS011;590;48.772;8.846;2023-02-05T03:41:31;6.53;;;6.13;;
253;SDS011;590;48.772;8.846;2023-02-05T03:44:26;5.60;;;5.30;;
253;SDS011;590;48.772;8.846;2023-02-05T03:47:04;5.60;;;5.30;;
253;SDS011;590;48.772;8.846;2023-02-05T03:49:40;6.13;;;5.83;;
253;SDS011;590;48.772;8.846;2023-02-05T03:52:18;5.90;;;5.60;;
253;SDS011;590;48.772;8.846;2023-02-05T03:55:06;6.53;;;6.13;;
253;SDS011;590;48.772;8.846;2023-02-05T04:57:40;6.07;;;5.67;;
253;SDS011;590;48.772;8.846;2023-02-05T05:00:40;5.80;;;5.50;;
253;SDS011;590;48.772;8.846;2023-02-05T05:04:16;5.70;;;5.40;;
253;SDS011;590;48.772;8.846;2023-02-05T05:12:34;5.30;;;5.00;;
253;SDS011;590;48.772;8.846;2023-02-05T05:25:16;5.17;;;4.87;;
253;SDS011;590;48.772;8.846;2023-02-05T05:28:17;5.67;;;5.37;;
253;SDS011;590;48.772;8.846;2023-02-05T05:31:25;5.53;;;5.23;;
253;SDS011;590;48.772;8.846;2023-02-05T05:35:26;5.60;;;5.30;;
253;SDS011;590;48.772;8.846;2023-02-05T05:38:35;5.07;;;4.77;;
253;SDS011;590;48.772;8.846;2023-02-05T05:41:58;5.63;;;5.40;;
253;SDS011;590;48.772;8.846;2023-02-05T05:53:02;5.50;;;5.20;;
253;SDS011;590;48.772;8.846;2023-02-05T05:56:02;4.97;;;4.67;;
253;SDS011;590;48.772;8.846;2023-02-05T06:02:06;5.10;;;4.80;;
253;SDS011;590;48.772;8.846;2023-02-05T06:04:34;5.10;;;4.80;;
253;SDS011;590;48.772;8.846;2023-02-05T06:07:02;4.90;;;4.60;;
253;SDS011;590;48.772;8.846;2023-02-05T06:09:31;5.00;;;4.70;;
253;SDS011;590;48.772;8.846;2023-02-05T06:11:59;5.60;;;5.30;;
253;SDS011;590;48.772;8.846;2023-02-05T06:14:26;4.97;;;4.67;;
253;SDS011;590;48.772;8.846;2023-02-05T06:16:56;5.30;;;5.00;;
253;SDS011;590;48.772;8.846;2023-02-05T06:19:24;5.37;;;5.07;;
253;SDS011;590;48.772;8.846;2023-02-05T06:21:52;4.90;;;4.60;;
253;SDS011;590;48.772;8.846;2023-02-05T06:24:20;5.50;;;5.20;;
253;SDS011;590;48.772;8.846;2023-02-05T06:26:48;5.13;;;4.83;;
253;SDS011;590;48.772;8.846;2023-02-05T06:29:16;5.00;;;4.70;;
253;SDS011;590;48.772;8.846;2023-02-05T06:31:44;5.07;;;4.77;;
253;SDS011;590;48.772;8.846;2023-02-05T06:34:13;4.80;;;4.50;;
253;SDS011;590;48.772;8.846;2023-02-05T06:36:41;4.60;;;4.30;;
253;SDS011;590;48.772;8.846;2023-02-05T06:39:09;4.83;;;4.53;;
253;SDS011;590;48.772;8.846;2023-02-05T06:41:37;5.90;;;5.60;;
253;SDS011;590;48.772;8.846;2023-02-05T06:44:06;5.63;;;5.33;;
253;SDS011;590;48.772;8.846;2023-02-05T06:46:34;4.80;;;4.50;;
253;SDS011;590;48.772;8.846;2023-02-05T06:49:02;4.60;;;4.30;;
253;SDS011;590;48.772;8.846;2023-02-05T06:51:31;5.77;;;5.47;;
253;SDS011;590;48.772;8.846;2023-02-05T06:54:00;5.13;;;4.83;;
253;SDS011;590;48.772;8.846;2023-02-05T06:56:28;4.90;;;4.60;;
253;SDS011;590;48.772;8.846;2023-02-05T06:58:56;5.17;;;4.87;;
253;SDS011;590;48.772;8.846;2023-02-05T07:01:24;4.50;;;4.20;;
253;SDS011;590;48.772;8.846;2023-02-05T07:03:53;5.20;;;4.90;;
253;SDS011;590;48.772;8.846;2023-02-05T07:06:21;4.90;;;4.60;;
253;SDS011;590;48.772;8.846;2023-02-05T07:08:51;5.00;;;4.70;;
253;SDS011;590;48.772;8.846;2023-02-05T07:11:20;5.40;;;5.10;;
253;SDS011;590;48.772;8.846;2023-02-05T07:13:49;5.30;;;5.00;;
253;SDS011;590;48.772;8.846;2023-02-05T07:16:17;5.70;;;5.40;;
253;SDS011;590;48.772;8.846;2023-02-05T07:18:45;4.77;;;4.47;;
253;SDS011;590;48.772;8.846;2023-02-05T07:21:13;5.07;;;4.77;;
253;SDS011;590;48.772;8.846;2023-02-05T07:23:44;5.07;;;4.77;;
253;SDS011;590;48.772;8.846;2023-02-05T07:26:14;5.47;;;5.17;;
253;SDS011;590;48.772;8.846;2023-02-05T07:28:43;4.80;;;4.50;;
253;SDS011;590;48.772;8.846;2023-02-05T07:31:12;6.10;;;5.80;;
253;SDS011;590;48.772;8.846;2023-02-05T07:33:41;5.40;;;5.10;;
253;SDS011;590;48.772;8.846;2023-02-05T07:36:10;5.33;;;5.03;;
253;SDS011;590;48.772;8.846;2023-02-05T07:38:41;5.70;;;5.40;;
253;SDS011;590;48.772;8.846;2023-02-05T07:41:11;5.00;;;4.70;;
253;SDS011;590;48.772;8.846;2023-02-05T07:43:42;4.90;;;4.60;;
253;SDS011;590;48.772;8.846;2023-02-05T07:46:11;4.83;;;4.53;;
253;SDS011;590;48.772;8.846;2023-02-05T07:48:40;5.40;;;5.17;;
253;SDS011;590;48.772;8.846;2023-02-05T07:51:11;4.60;;;4.30;;
253;SDS011;590;48.772;8.846;2023-02-05T07:53:43;5.20;;;4.90;;
253;SDS011;590;48.772;8.846;2023-02-05T07:56:17;4.83;;;4.53;;
253;SDS011;590;48.772;8.846;2023-02-05T07:58:49;5.17;;;4.87;;
253;SDS011;590;48.772;8.846;2023-02-05T08:01:30;4.70;;;4.40;;
253;SDS011;590;48.772;8.846;2023-02-05T08:04:09;4.83;;;4.53;;
253;SDS011;590;48.772;8.846;2023-02-05T08:06:38;5.30;;;5.00;;
253;SDS011;590;48.772;8.846;2023-02-05T08:09:07;4.90;;;4.60;;
253;SDS011;590;48.772;8.846;2023-02-05T08:11:36;4.90;;;4.60;;
253;SDS011;590;48.772;8.846;2023-02-05T08:14:07;5.07;;;4.77;;
253;SDS011;590;48.772;8.846;2023-02-05T08:16:35;5.50;;;5.20;;
253;SDS011;590;48.772;8.846;2023-02-05T08:19:03;4.50;;;4.20;;
253;SDS011;590;48.772;8.846;2023-02-05T08:21:32;4.90;;;4.60;;
253;SDS011;590;48.772;8.846;2023-02-05T08:24:01;5.50;;;5.20;;
253;SDS011;590;48.772;8.846;2023-02-05T08:26:30;4.83;;;4.53;;
253;SDS011;590;48.772;8.846;2023-02-05T08:29:00;4.77;;;4.47;;
253;SDS011;590;48.772;8.846;2023-02-05T08:31:29;5.17;;;4.70;;
253;SDS011;590;48.772;8.846;2023-02-05T08:33:57;5.70;;;5.40;;
253;SDS011;590;48.772;8.846;2023-02-05T08:36:25;5.37;;;5.07;;
253;SDS011;590;48.772;8.846;2023-02-05T08:38:54;5.00;;;4.70;;
253;SDS011;590;48.772;8.846;2023-02-05T08:41:34;4.90;;;4.60;;
253;SDS011;590;48.772;8.846;2023-02-05T08:44:07;4.40;;;4.10;;
253;SDS011;590;48.772;8.846;2023-02-05T08:46:35;5.30;;;5.00;;
253;SDS011;590;48.772;8.846;2023-02-05T08:49:15;4.83;;;4.53;;
253;SDS011;590;48.772;8.846;2023-02-05T08:51:43;5.77;;;5.47;;
253;SDS011;590;48.772;8.846;2023-02-05T08:58:14;5.00;;;4.70;;
253;SDS011;590;48.772;8.846;2023-02-05T09:00:46;5.17;;;4.87;;
253;SDS011;590;48.772;8.846;2023-02-05T09:03:23;4.97;;;4.67;;
253;SDS011;590;48.772;8.846;2023-02-05T09:05:52;4.50;;;4.20;;
253;SDS011;590;48.772;8.846;2023-02-05T09:08:36;4.73;;;4.43;;
253;SDS011;590;48.772;8.846;2023-02-05T09:11:19;5.47;;;5.17;;
253;SDS011;590;48.772;8.846;2023-02-05T09:14:10;5.73;;;5.43;;
253;SDS011;590;48.772;8.846;2023-02-05T09:21:13;5.30;;;5.00;;
253;SDS011;590;48.772;8.846;2023-02-05T09:29:15;5.53;;;5.23;;
253;SDS011;590;48.772;8.846;2023-02-05T09:31:48;5.80;;;5.50;;
253;SDS011;590;48.772;8.846;2023-02-05T09:34:17;5.03;;;4.73;;
253;SDS011;590;48.772;8.846;2023-02-05T09:36:49;5.20;;;4.90;;
253;SDS011;590;48.772;8.846;2023-02-05T09:39:25;5.80;;;5.50;;
253;SDS011;590;48.772;8.846;2023-02-05T09:55:24;5.93;;;5.63;;
253;SDS011;590;48.772;8.846;2023-02-05T09:57:54;5.80;;;5.50;;
253;SDS011;590;48.772;8.846;2023-02-05T10:00:27;5.67;;;5.37;;
253;SDS011;590;48.772;8.846;2023-02-05T10:03:00;5.90;;;5.60;;
253;SDS011;590;48.772;8.846;2023-02-05T10:05:35;6.40;;;6.00;;
253;SDS011;590;48.772;8.846;2023-02-05T10:08:12;5.60;;;5.30;;
253;SDS011;590;48.772;8.846;2023-02-05T10:10:50;5.93;;;5.63;;
253;SDS011;590;48.772;8.846;2023-02-05T10:13:25;5.30;;;5.00;;
253;SDS011;590;48.772;8.846;2023-02-05T10:16:03;5.53;;;5.23;;
253;SDS011;590;48.772;8.846;2023-02-05T10:18:52;5.67;;;5.37;;
253;SDS011;590;48.772;8.846;2023-02-05T10:21:34;5.57;;;5.27;;
253;SDS011;590;48.772;8.846;2023-02-05T10:24:19;5.60;;;5.30;;
253;SDS011;590;48.772;8.846;2023-02-05T10:26:59;5.27;;;4.97;;
253;SDS011;590;48.772;8.846;2023-02-05T10:29:36;5.03;;;4.72;;
253;SDS011;590;48.772;8.846;2023-02-05T10:32:15;5.80;;;5.50;;
253;SDS011;590;48.772;8.846;2023-02-05T10:34:51;5.30;;;5.00;;
253;SDS011;590;48.772;8.846;2023-02-05T10:37:29;5.60;;;5.30;;
253;SDS011;590;48.772;8.846;2023-02-05T10:40:05;5.17;;;4.87;;
253;SDS011;590;48.772;8.846;2023-02-05T10:42:41;5.50;;;5.20;;
253;SDS011;590;48.772;8.846;2023-02-05T10:45:13;5.63;;;5.33;;
253;SDS011;590;48.772;8.846;2023-02-05T10:47:54;5.40;;;5.10;;
253;SDS011;590;48.772;8.846;2023-02-05T10:50:35;5.50;;;5.20;;
253;SDS011;590;48.772;8.846;2023-02-05T10:53:17;6.03;;;5.73;;
253;SDS011;590;48.772;8.846;2023-02-05T10:55:47;5.23;;;4.93;;
253;SDS011;590;48.772;8.846;2023-02-05T11:01:05;5.00;;;4.70;;
253;SDS011;590;48.772;8.846;2023-02-05T11:03:34;5.20;;;4.90;;
253;SDS011;590;48.772;8.846;2023-02-05T11:06:03;5.33;;;5.03;;
253;SDS011;590;48.772;8.846;2023-02-05T11:08:36;5.03;;;4.73;;
253;SDS011;590;48.772;8.846;2023-02-05T11:11:10;4.27;;;4.00;;
253;SDS011;590;48.772;8.846;2023-02-05T11:13:50;5.40;;;5.10;;
253;SDS011;590;48.772;8.846;2023-02-05T11:16:20;4.80;;;4.50;;
253;SDS011;590;48.772;8.846;2023-02-05T11:18:56;4.60;;;4.30;;
253;SDS011;590;48.772;8.846;2023-02-05T11:21:46;5.40;;;5.10;;
253;SDS011;590;48.772;8.846;2023-02-05T11:24:23;4.90;;;4.60;;
253;SDS011;590;48.772;8.846;2023-02-05T11:29:53;4.90;;;4.60;;
253;SDS011;590;48.772;8.846;2023-02-05T11:32:29;4.50;;;4.20;;
253;SDS011;590;48.772;8.846;2023-02-05T11:35:15;3.90;;;3.70;;
253;SDS011;590;48.772;8.846;2023-02-05T11:37:46;4.47;;;4.17;;
253;SDS011;590;48.772;8.846;2023-02-05T11:40:22;3.97;;;3.77;;
253;SDS011;590;48.772;8.846;2023-02-05T11:42:57;3.60;;;3.40;;
253;SDS011;590;48.772;8.846;2023-02-05T11:45:34;3.83;;;3.63;;
253;SDS011;590;48.772;8.846;2023-02-05T11:48:05;4.70;;;4.40;;
253;SDS011;590;48.772;8.846;2023-02-05T11:50:48;4.87;;;3.60;;
253;SDS011;590;48.772;8.846;2023-02-05T11:53:16;4.37;;;4.07;;
253;SDS011;590;48.772;8.846;2023-02-05T11:55:50;4.30;;;4.00;;
253;SDS011;590;48.772;8.846;2023-02-05T11:58:21;4.83;;;4.53;;
253;SDS011;590;48.772;8.846;2023-02-05T12:01:04;4.40;;;4.10;;
253;SDS011;590;48.772;8.846;2023-02-05T12:03:55;3.73;;;3.53;;
253;SDS011;590;48.772;8.846;2023-02-05T12:06:25;4.60;;;4.30;;
253;SDS011;590;48.772;8.846;2023-02-05T12:08:57;3.70;;;3.50;;
253;SDS011;590;48.772;8.846;2023-02-05T12:11:40;3.23;;;3.03;;
253;SDS011;590;48.772;8.846;2023-02-05T12:14:35;3.77;;;3.57;;
253;SDS011;590;48.772;8.846;2023-02-05T12:20:11;3.83;;;3.63;;
253;SDS011;590;48.772;8.846;2023-02-05T12:22:54;3.67;;;3.47;;
253;SDS011;590;48.772;8.846;2023-02-05T12:25:33;3.67;;;3.50;;
253;SDS011;590;48.772;8.846;2023-02-05T12:28:14;3.53;;;3.33;;
253;SDS011;590;48.772;8.846;2023-02-05T12:30:52;3.47;;;3.17;;
253;SDS011;590;48.772;8.846;2023-02-05T12:33:32;3.93;;;3.73;;
253;SDS011;590;48.772;8.846;2023-02-05T12:36:33;3.23;;;3.03;;
253;SDS011;590;48.772;8.846;2023-02-05T12:39:18;3.40;;;3.20;;
253;SDS011;590;48.772;8.846;2023-02-05T12:41:57;3.60;;;3.40;;
253;SDS011;590;48.772;8.846;2023-02-05T12:44:52;3.43;;;3.23;;
253;SDS011;590;48.772;8.846;2023-02-05T12:47:39;3.20;;;3.00;;
253;SDS011;590;48.772;8.846;2023-02-05T12:50:25;2.80;;;2.60;;
253;SDS011;590;48.772;8.846;2023-02-05T12:53:09;3.33;;;3.13;;
253;SDS011;590;48.772;8.846;2023-02-05T12:55:47;3.20;;;3.00;;
253;SDS011;590;48.772;8.846;2023-02-05T12:58:32;3.17;;;2.97;;
253;SDS011;590;48.772;8.846;2023-02-05T13:01:03;2.93;;;2.73;;
253;SDS011;590;48.772;8.846;2023-02-05T13:03:36;2.97;;;2.77;;
253;SDS011;590;48.772;8.846;2023-02-05T13:06:11;2.50;;;2.30;;
253;SDS011;590;48.772;8.846;2023-02-05T13:08:44;2.90;;;2.70;;
253;SDS011;590;48.772;8.846;2023-02-05T13:11:16;2.67;;;2.47;;
253;SDS011;590;48.772;8.846;2023-02-05T13:13:52;2.97;;;2.77;;
253;SDS011;590;48.772;8.846;2023-02-05T13:16:27;3.30;;;3.10;;
253;SDS011;590;48.772;8.846;2023-02-05T13:19:00;2.63;;;2.43;;
253;SDS011;590;48.772;8.846;2023-02-05T13:21:36;2.70;;;2.50;;
253;SDS011;590;48.772;8.846;2023-02-05T13:24:24;2.80;;;2.60;;
253;SDS011;590;48.772;8.846;2023-02-05T13:27:17;2.70;;;2.50;;
253;SDS011;590;48.772;8.846;2023-02-05T13:30:07;2.70;;;2.50;;
253;SDS011;590;48.772;8.846;2023-02-05T13:32:39;2.57;;;2.37;;
253;SDS011;590;48.772;8.846;2023-02-05T13:35:10;2.23;;;2.03;;
253;SDS011;590;48.772;8.846;2023-02-05T13:37:42;3.13;;;2.93;;
253;SDS011;590;48.772;8.846;2023-02-05T13:43:20;2.27;;;2.07;;
253;SDS011;590;48.772;8.846;2023-02-05T13:46:17;2.50;;;2.30;;
253;SDS011;590;48.772;8.846;2023-02-05T13:49:09;2.20;;;2.00;;
253;SDS011;590;48.772;8.846;2023-02-05T13:52:03;2.30;;;2.10;;
253;SDS011;590;48.772;8.846;2023-02-05T13:58:04;1.70;;;1.60;;
253;SDS011;590;48.772;8.846;2023-02-05T14:00:40;1.73;;;1.67;;
253;SDS011;590;48.772;8.846;2023-02-05T14:03:19;2.13;;;1.97;;
253;SDS011;590;48.772;8.846;2023-02-05T14:05:59;1.90;;;1.80;;
253;SDS011;590;48.772;8.846;2023-02-05T14:08:39;1.80;;;1.70;;
253;SDS011;590;48.772;8.846;2023-02-05T14:11:09;2.00;;;1.90;;
253;SDS011;590;48.772;8.846;2023-02-05T14:13:37;1.90;;;1.80;;
253;SDS011;590;48.772;8.846;2023-02-05T14:19:09;1.90;;;1.80;;
253;SDS011;590;48.772;8.846;2023-02-05T14:21:47;1.33;;;1.23;;
253;SDS011;590;48.772;8.846;2023-02-05T14:24:43;1.60;;;1.50;;
253;SDS011;590;48.772;8.846;2023-02-05T14:30:32;1.83;;;1.73;;
253;SDS011;590;48.772;8.846;2023-02-05T14:33:24;1.40;;;1.30;;
253;SDS011;590;48.772;8.846;2023-02-05T14:35:55;1.90;;;1.80;;
253;SDS011;590;48.772;8.846;2023-02-05T14:38:24;1.43;;;1.40;;
253;SDS011;590;48.772;8.846;2023-02-05T14:41:02;1.57;;;1.50;;
253;SDS011;590;48.772;8.846;2023-02-05T14:43:36;1.60;;;1.50;;
253;SDS011;590;48.772;8.846;2023-02-05T14:46:17;1.67;;;1.57;;
253;SDS011;590;48.772;8.846;2023-02-05T14:48:47;1.90;;;1.80;;
253;SDS011;590;48.772;8.846;2023-02-05T14:51:17;1.57;;;1.53;;
253;SDS011;590;48.772;8.846;2023-02-05T14:53:52;1.30;;;1.20;;
253;SDS011;590;48.772;8.846;2023-02-05T14:56:24;1.40;;;1.30;;
253;SDS011;590;48.772;8.846;2023-02-05T14:58:59;1.87;;;1.77;;
253;SDS011;590;48.772;8.846;2023-02-05T15:01:42;1.83;;;1.70;;
253;SDS011;590;48.772;8.846;2023-02-05T15:04:17;2.00;;;1.70;;
253;SDS011;590;48.772;8.846;2023-02-05T15:07:09;1.50;;;1.40;;
253;SDS011;590;48.772;8.846;2023-02-05T15:09:41;1.63;;;1.53;;
253;SDS011;590;48.772;8.846;2023-02-05T15:15:27;1.63;;;1.53;;
253;SDS011;590;48.772;8.846;2023-02-05T15:18:04;1.57;;;1.47;;
253;SDS011;590;48.772;8.846;2023-02-05T15:20:43;1.40;;;1.30;;
253;SDS011;590;48.772;8.846;2023-02-05T15:23:15;1.43;;;1.33;;
253;SDS011;590;48.772;8.846;2023-02-05T15:25:54;1.50;;;1.40;;
253;SDS011;590;48.772;8.846;2023-02-05T15:28:32;1.87;;;1.77;;
253;SDS011;590;48.772;8.846;2023-02-05T15:31:16;1.53;;;1.43;;
253;SDS011;590;48.772;8.846;2023-02-05T15:33:51;1.60;;;1.50;;
253;SDS011;590;48.772;8.846;2023-02-05T15:36:29;1.20;;;1.10;;
253;SDS011;590;48.772;8.846;2023-02-05T15:39:04;1.40;;;1.30;;
253;SDS011;590;48.772;8.846;2023-02-05T15:41:39;1.73;;;1.63;;
253;SDS011;590;48.772;8.846;2023-02-05T15:44:18;0.83;;;0.80;;
253;SDS011;590;48.772;8.846;2023-02-05T15:46:49;1.80;;;1.70;;
253;SDS011;590;48.772;8.846;2023-02-05T15:49:19;2.20;;;2.00;;
253;SDS011;590;48.772;8.846;2023-02-05T15:51:56;1.77;;;1.70;;
253;SDS011;590;48.772;8.846;2023-02-05T15:54:26;1.20;;;1.10;;
253;SDS011;590;48.772;8.846;2023-02-05T15:57:48;1.30;;;1.20;;
253;SDS011;590;48.772;8.846;2023-02-05T16:00:26;1.80;;;1.57;;
253;SDS011;590;48.772;8.846;2023-02-05T16:02:58;1.70;;;1.60;;
253;SDS011;590;48.772;8.846;2023-02-05T16:05:28;1.60;;;1.50;;
253;SDS011;590;48.772;8.846;2023-02-05T16:07:57;1.40;;;1.30;;
253;SDS011;590;48.772;8.846;2023-02-05T16:10:28;1.70;;;1.60;;
253;SDS011;590;48.772;8.846;2023-02-05T16:12:57;1.80;;;1.70;;
253;SDS011;590;48.772;8.846;2023-02-05T16:15:27;1.50;;;1.50;;
253;SDS011;590;48.772;8.846;2023-02-05T16:18:01;1.50;;;1.40;;
253;SDS011;590;48.772;8.846;2023-02-05T16:20:33;1.67;;;1.57;;
253;SDS011;590;48.772;8.846;2023-02-05T16:23:06;1.50;;;1.43;;
253;SDS011;590;48.772;8.846;2023-02-05T16:25:39;1.40;;;1.30;;
253;SDS011;590;48.772;8.846;2023-02-05T16:28:12;1.33;;;1.27;;
253;SDS011;590;48.772;8.846;2023-02-05T16:30:51;1.27;;;1.17;;
253;SDS011;590;48.772;8.846;2023-02-05T16:33:25;1.97;;;1.87;;
253;SDS011;590;48.772;8.846;2023-02-05T16:35:59;1.80;;;1.20;;
253;SDS011;590;48.772;8.846;2023-02-05T16:38:29;2.10;;;1.47;;
253;SDS011;590;48.772;8.846;2023-02-05T16:40:59;1.60;;;1.23;;
253;SDS011;590;48.772;8.846;2023-02-05T16:43:45;1.37;;;1.27;;
253;SDS011;590;48.772;8.846;2023-02-05T16:46:26;1.37;;;1.27;;
253;SDS011;590;48.772;8.846;2023-02-05T16:48:57;1.23;;;1.13;;
253;SDS011;590;48.772;8.846;2023-02-05T16:54:42;1.80;;;1.70;;
253;SDS011;590;48.772;8.846;2023-02-05T16:57:14;1.13;;;1.10;;
253;SDS011;590;48.772;8.846;2023-02-05T16:59:50;1.40;;;1.30;;
253;SDS011;590;48.772;8.846;2023-02-05T17:02:24;1.60;;;1.50;;
253;SDS011;590;48.772;8.846;2023-02-05T17:04:56;1.70;;;1.53;;
253;SDS011;590;48.772;8.846;2023-02-05T17:07:27;1.63;;;1.53;;
253;SDS011;590;48.772;8.846;2023-02-05T17:10:12;1.73;;;1.73;;
253;SDS011;590;48.772;8.846;2023-02-05T17:12:47;1.67;;;1.57;;
253;SDS011;590;48.772;8.846;2023-02-05T17:15:35;1.17;;;1.10;;
253;SDS011;590;48.772;8.846;2023-02-05T17:26:45;1.80;;;1.70;;
253;SDS011;590;48.772;8.846;2023-02-05T17:29:14;1.23;;;1.13;;
253;SDS011;590;48.772;8.846;2023-02-05T17:31:42;1.90;;;1.80;;
253;SDS011;590;48.772;8.846;2023-02-05T17:34:10;1.40;;;1.30;;
253;SDS011;590;48.772;8.846;2023-02-05T17:36:39;1.57;;;1.47;;
253;SDS011;590;48.772;8.846;2023-02-05T17:39:09;1.40;;;1.30;;
253;SDS011;590;48.772;8.846;2023-02-05T17:41:37;1.10;;;1.00;;
253;SDS011;590;48.772;8.846;2023-02-05T17:44:25;1.60;;;1.50;;
253;SDS011;590;48.772;8.846;2023-02-05T17:49:51;1.57;;;1.47;;
253;SDS011;590;48.772;8.846;2023-02-05T17:52:19;1.60;;;1.50;;
253;SDS011;590;48.772;8.846;2023-02-05T17:54:51;1.50;;;1.40;;
253;SDS011;590;48.772;8.846;2023-02-05T17:57:50;1.30;;;1.20;;
253;SDS011;590;48.772;8.846;2023-02-05T18:01:43;1.70;;;1.60;;
253;SDS011;590;48.772;8.846;2023-02-05T18:04:11;1.90;;;1.80;;
253;SDS011;590;48.772;8.846;2023-02-05T18:06:48;1.50;;;1.40;;
253;SDS011;590;48.772;8.846;2023-02-05T18:15:51;1.20;;;1.10;;
253;SDS011;590;48.772;8.846;2023-02-05T18:22:42;1.53;;;1.43;;
253;SDS011;590;48.772;8.846;2023-02-05T18:25:13;1.40;;;1.30;;
253;SDS011;590;48.772;8.846;2023-02-05T18:27:44;1.20;;;1.10;;
253;SDS011;590;48.772;8.846;2023-02-05T18:30:13;1.33;;;1.33;;
253;SDS011;590;48.772;8.846;2023-02-05T18:32:41;1.40;;;1.30;;
253;SDS011;590;48.772;8.846;2023-02-05T18:35:11;1.33;;;1.10;;
253;SDS011;590;48.772;8.846;2023-02-05T18:37:40;1.27;;;1.17;;
253;SDS011;590;48.772;8.846;2023-02-05T18:40:09;1.27;;;1.17;;
253;SDS011;590;48.772;8.846;2023-02-05T18:42:40;1.33;;;1.30;;
253;SDS011;590;48.772;8.846;2023-02-05T18:45:37;1.47;;;1.37;;
253;SDS011;590;48.772;8.846;2023-02-05T18:48:06;1.30;;;1.20;;
253;SDS011;590;48.772;8.846;2023-02-05T18:50:40;1.50;;;1.40;;
253;SDS011;590;48.772;8.846;2023-02-05T18:53:08;1.40;;;1.30;;
253;SDS011;590;48.772;8.846;2023-02-05T18:55:39;1.80;;;1.70;;
253;SDS011;590;48.772;8.846;2023-02-05T18:58:07;1.50;;;1.40;;
253;SDS011;590;48.772;8.846;2023-02-05T19:00:37;1.30;;;1.20;;
253;SDS011;590;48.772;8.846;2023-02-05T19:03:12;1.10;;;1.00;;
253;SDS011;590;48.772;8.846;2023-02-05T19:09:48;1.00;;;0.90;;
253;SDS011;590;48.772;8.846;2023-02-05T19:12:18;1.37;;;1.30;;
253;SDS011;590;48.772;8.846;2023-02-05T19:15:05;1.10;;;1.00;;
253;SDS011;590;48.772;8.846;2023-02-05T19:17:39;1.50;;;1.40;;
253;SDS011;590;48.772;8.846;2023-02-05T19:20:15;1.20;;;1.10;;
253;SDS011;590;48.772;8.846;2023-02-05T19:23:04;1.57;;;1.47;;
253;SDS011;590;48.772;8.846;2023-02-05T19:25:34;1.40;;;1.30;;
253;SDS011;590;48.772;8.846;2023-02-05T19:28:03;1.40;;;1.30;;